Time;durP1;ratioP1;P1;durP2;ratioP2;P2;SDS_P1;SDS_P2;PMS_P1;PMS_P2;Temp;Humidity;BMP_temperature;BMP_pressure;BME280_temperature;BME280_humidity;BME280_pressure;Samples;Min_cycle;Max_cycle;Signal;HPM_P1;HPM_P2
2023/01/27 00:01:51;;;;;;;1.15;0.50;;;4.90;90.80;;;;;;5114164;28;20050;-80
2023/01/27 00:04:16;;;;;;;0.60;0.50;;;4.90;90.80;;;;;;5112895;28;20036;-78
2023/01/27 00:06:42;;;;;;;0.77;0.50;;;4.90;90.80;;;;;;5076111;28;20044;-78
2023/01/27 00:09:08;;;;;;;1.67;0.40;;;4.80;90.80;;;;;;5059090;28;20075;-79
2023/01/27 00:14:15;;;;;;;3.10;0.68;;;4.80;90.80;;;;;;5109192;28;20452;-78
2023/01/27 00:16:41;;;;;;;1.50;0.52;;;4.80;90.80;;;;;;5091882;28;20039;-78
2023/01/27 00:19:06;;;;;;;1.45;0.68;;;4.80;90.80;;;;;;5059618;28;20042;-79
2023/01/27 00:26:56;;;;;;;1.92;0.50;;;4.80;90.70;;;;;;5078566;28;20043;-78
2023/01/27 00:29:21;;;;;;;0.82;0.55;;;4.80;90.80;;;;;;5073949;28;20044;-79
2023/01/27 00:34:26;;;;;;;0.70;0.50;;;4.80;90.70;;;;;;5078617;28;20047;-78
2023/01/27 00:36:52;;;;;;;1.63;0.50;;;4.70;90.70;;;;;;5091518;28;20044;-78
2023/01/27 00:39:17;;;;;;;0.75;0.63;;;4.70;90.70;;;;;;5077957;28;20130;-78
2023/01/27 00:41:43;;;;;;;0.60;0.45;;;4.70;90.70;;;;;;5061111;28;20040;-78
2023/01/27 00:44:11;;;;;;;2.15;0.65;;;4.70;90.70;;;;;;5060131;28;20109;-79
2023/01/27 00:46:37;;;;;;;0.88;0.60;;;4.70;90.70;;;;;;5060384;28;20382;-78
2023/01/27 00:49:03;;;;;;;1.60;0.88;;;4.70;90.70;;;;;;5077378;28;20040;-78
2023/01/27 00:51:29;;;;;;;1.52;0.80;;;4.70;90.70;;;;;;5076718;28;20089;-78
2023/01/27 00:53:55;;;;;;;2.10;0.80;;;4.80;90.70;;;;;;5060716;28;20040;-78
2023/01/27 00:56:21;;;;;;;1.48;0.70;;;4.70;90.70;;;;;;5077173;28;20040;-78
2023/01/27 00:58:46;;;;;;;1.67;0.60;;;4.70;90.70;;;;;;5075051;28;20044;-79
2023/01/27 01:01:15;;;;;;;1.05;0.60;;;4.70;90.70;;;;;;5076731;28;20477;-78
2023/01/27 01:03:41;;;;;;;0.98;0.60;;;4.60;90.60;;;;;;5094288;28;20039;-79
2023/01/27 01:06:09;;;;;;;1.70;0.80;;;4.60;90.70;;;;;;5094636;28;20061;-79
2023/01/27 01:08:36;;;;;;;0.90;0.60;;;4.70;90.70;;;;;;5060582;28;20398;-79
2023/01/27 01:11:04;;;;;;;4.35;0.95;;;4.70;90.70;;;;;;5094509;28;20107;-79
2023/01/27 01:13:30;;;;;;;1.65;0.57;;;4.60;90.70;;;;;;5076832;28;20036;-79
2023/01/27 01:15:56;;;;;;;1.45;0.50;;;4.70;90.70;;;;;;5059380;28;20044;-79
2023/01/27 01:18:22;;;;;;;0.73;0.47;;;4.60;90.70;;;;;;5094147;28;20036;-79
2023/01/27 01:20:49;;;;;;;1.05;0.60;;;4.60;90.70;;;;;;5076689;28;20040;-78
2023/01/27 01:23:15;;;;;;;0.60;0.60;;;4.70;90.70;;;;;;5076486;28;20512;-79
2023/01/27 01:25:42;;;;;;;0.80;0.60;;;4.60;90.60;;;;;;5061120;28;20547;-78
2023/01/27 01:28:08;;;;;;;1.55;0.52;;;4.60;90.70;;;;;;5077356;28;20126;-78
2023/01/27 01:30:35;;;;;;;1.17;0.80;;;4.60;90.70;;;;;;5076150;28;20040;-79
2023/01/27 01:33:02;;;;;;;0.73;0.65;;;4.60;90.70;;;;;;5076643;28;20374;-78
2023/01/27 01:35:28;;;;;;;0.65;0.40;;;4.60;90.70;;;;;;5093997;28;20028;-78
2023/01/27 01:37:54;;;;;;;0.90;0.60;;;4.50;90.60;;;;;;5094618;28;20493;-78
2023/01/27 01:40:21;;;;;;;0.73;0.60;;;4.50;90.70;;;;;;5094141;28;20036;-78
2023/01/27 01:42:59;;;;;;;1.08;0.60;;;4.50;90.60;;;;;;5095262;28;20040;-78
2023/01/27 01:45:46;;;;;;;1.25;0.85;;;4.50;90.70;;;;;;5093772;28;20043;-78
2023/01/27 01:48:17;;;;;;;1.45;0.60;;;4.50;90.70;;;;;;5076435;28;20040;-78
2023/01/27 01:50:49;;;;;;;1.80;0.82;;;4.50;91.00;;;;;;5058370;28;20032;-78
2023/01/27 01:53:16;;;;;;;2.47;1.20;;;4.50;90.70;;;;;;5059250;28;20126;-78
2023/01/27 01:55:42;;;;;;;1.23;0.80;;;4.50;90.70;;;;;;5060111;28;20121;-77
2023/01/27 01:58:11;;;;;;;0.90;0.70;;;4.50;90.70;;;;;;5077252;28;20044;-78
2023/01/27 02:00:36;;;;;;;1.02;0.80;;;4.50;90.70;;;;;;5059626;28;20044;-79
2023/01/27 02:03:03;;;;;;;1.35;0.88;;;4.50;90.60;;;;;;5059980;28;20047;-79
2023/01/27 02:05:32;;;;;;;2.20;0.70;;;4.50;90.60;;;;;;5076618;28;20044;-80
2023/01/27 02:08:11;;;;;;;2.05;0.80;;;4.50;90.60;;;;;;5076472;28;20095;-78
2023/01/27 02:10:37;;;;;;;1.25;0.90;;;4.50;90.60;;;;;;5076021;28;20044;-78
2023/01/27 02:13:03;;;;;;;1.90;1.00;;;4.50;90.60;;;;;;5027680;28;21216;-78
2023/01/27 02:15:30;;;;;;;1.02;0.63;;;4.50;90.60;;;;;;5059482;28;20048;-78
2023/01/27 02:17:58;;;;;;;1.60;1.13;;;4.50;90.60;;;;;;5075988;28;20099;-79
2023/01/27 02:20:46;;;;;;;1.63;1.00;;;4.50;90.70;;;;;;5093718;28;20063;-78
2023/01/27 02:23:51;;;;;;;1.80;0.85;;;4.50;90.60;;;;;;5059944;28;20036;-79
2023/01/27 02:26:24;;;;;;;1.65;0.70;;;4.50;90.60;;;;;;5052147;28;20046;-78
2023/01/27 02:28:55;;;;;;;2.08;0.80;;;4.50;90.60;;;;;;5075226;28;20053;-78
2023/01/27 02:31:21;;;;;;;0.95;0.70;;;4.50;90.60;;;;;;5058884;28;20478;-78
2023/01/27 02:33:48;;;;;;;1.90;0.90;;;4.50;90.60;;;;;;5074816;28;20047;-78
2023/01/27 02:36:16;;;;;;;1.45;0.82;;;4.50;90.60;;;;;;5074990;28;20135;-78
2023/01/27 02:38:49;;;;;;;2.92;1.00;;;4.50;90.60;;;;;;5025949;28;20035;-78
2023/01/27 02:41:28;;;;;;;1.60;0.75;;;4.50;90.60;;;;;;5074764;28;20051;-78
2023/01/27 02:43:54;;;;;;;1.58;1.00;;;4.40;90.60;;;;;;5058548;28;20055;-78
2023/01/27 02:46:20;;;;;;;2.25;0.98;;;4.50;90.60;;;;;;5058148;28;20051;-78
2023/01/27 02:48:46;;;;;;;1.92;0.90;;;4.60;90.60;;;;;;5058377;28;20508;-78
2023/01/27 02:51:12;;;;;;;2.35;1.08;;;4.50;90.60;;;;;;5074952;28;20036;-78
2023/01/27 02:53:38;;;;;;;2.75;1.17;;;4.50;90.60;;;;;;5058822;28;20048;-78
2023/01/27 02:56:04;;;;;;;1.70;1.02;;;4.60;90.70;;;;;;5093390;28;20401;-78
2023/01/27 02:58:30;;;;;;;2.40;1.20;;;4.50;90.60;;;;;;5075040;28;20567;-77
2023/01/27 03:00:56;;;;;;;2.67;1.40;;;4.50;90.60;;;;;;5074459;28;20044;-78
2023/01/27 03:03:21;;;;;;;1.90;1.20;;;4.50;90.60;;;;;;5075111;28;20036;-78
2023/01/27 03:05:49;;;;;;;2.92;1.50;;;4.50;90.60;;;;;;5076133;28;20068;-80
2023/01/27 03:08:16;;;;;;;3.42;1.38;;;4.50;90.90;;;;;;5028016;28;20102;-78
2023/01/27 03:10:41;;;;;;;3.65;1.70;;;4.50;90.60;;;;;;5076317;28;20101;-78
2023/01/27 03:13:07;;;;;;;3.00;1.33;;;4.40;90.60;;;;;;5094173;28;20469;-79
2023/01/27 03:18:11;;;;;;;2.55;1.45;;;4.50;90.60;;;;;;5076468;28;20047;-77
2023/01/27 03:20:38;;;;;;;4.90;2.15;;;4.40;90.60;;;;;;5076531;28;20028;-78
2023/01/27 03:23:04;;;;;;;3.42;1.60;;;4.40;90.60;;;;;;5058377;28;20039;-78
2023/01/27 03:25:29;;;;;;;3.20;1.60;;;4.40;90.60;;;;;;5074257;28;20036;-78
2023/01/27 03:27:56;;;;;;;3.33;1.55;;;4.40;90.60;;;;;;5074597;28;20093;-78
2023/01/27 03:30:22;;;;;;;3.25;1.60;;;4.40;90.70;;;;;;5092721;28;20032;-78
2023/01/27 03:32:47;;;;;;;2.78;1.65;;;4.40;90.70;;;;;;5059213;28;20489;-79
2023/01/27 03:35:15;;;;;;;3.45;1.80;;;4.40;90.70;;;;;;5057642;28;20435;-78
2023/01/27 03:48:31;;;;;;;3.65;1.50;;;4.40;90.70;;;;;;5076948;28;20120;-78
2023/01/27 03:50:58;;;;;;;3.08;1.48;;;4.40;90.60;;;;;;5057632;28;20044;-79
2023/01/27 03:53:24;;;;;;;3.45;1.60;;;4.40;90.60;;;;;;5058818;28;20085;-78
2023/01/27 03:55:50;;;;;;;3.05;1.70;;;4.40;90.60;;;;;;5092433;28;20489;-79
2023/01/27 03:58:25;;;;;;;2.60;1.40;;;4.40;90.60;;;;;;5041866;28;20036;-79
2023/01/27 04:00:54;;;;;;;2.35;1.30;;;4.40;90.60;;;;;;5058774;28;20087;-79
2023/01/27 04:08:42;;;;;;;1.67;0.88;;;4.50;90.60;;;;;;5091559;28;20516;-77
2023/01/27 04:13:53;;;;;;;1.88;1.10;;;4.50;90.60;;;;;;5093974;28;20045;-77
2023/01/27 04:16:18;;;;;;;1.63;1.00;;;4.50;90.60;;;;;;5060636;28;20405;-77
2023/01/27 04:18:45;;;;;;;1.10;0.88;;;4.50;90.60;;;;;;5061347;28;20036;-77
2023/01/27 04:21:12;;;;;;;1.75;0.95;;;4.40;90.50;;;;;;5096823;28;20050;-78
2023/01/27 04:23:38;;;;;;;1.58;1.00;;;4.50;90.60;;;;;;5060696;28;20401;-77
2023/01/27 04:26:03;;;;;;;2.53;1.20;;;4.50;90.60;;;;;;5029339;28;20041;-77
2023/01/27 04:28:29;;;;;;;2.33;1.00;;;4.50;90.60;;;;;;5077807;28;20040;-78
2023/01/27 04:30:57;;;;;;;1.70;1.10;;;4.50;90.50;;;;;;5096150;28;20060;-78
2023/01/27 04:33:22;;;;;;;1.95;1.00;;;4.50;90.50;;;;;;5060341;28;20155;-78
2023/01/27 04:35:49;;;;;;;1.77;1.05;;;4.50;90.50;;;;;;5061705;28;20052;-79
2023/01/27 04:38:15;;;;;;;1.75;1.02;;;4.60;90.50;;;;;;5097461;28;20047;-78
2023/01/27 04:40:42;;;;;;;1.33;0.90;;;4.50;90.50;;;;;;5061762;28;20036;-78
2023/01/27 04:43:07;;;;;;;2.47;1.25;;;4.60;90.50;;;;;;5060501;28;20427;-79
2023/01/27 04:45:33;;;;;;;1.48;1.00;;;4.60;90.40;;;;;;5095928;28;20093;-78
2023/01/27 04:47:58;;;;;;;2.70;1.50;;;4.60;90.40;;;;;;5077837;28;20037;-79
2023/01/27 04:50:24;;;;;;;2.00;1.10;;;4.70;90.40;;;;;;5059750;28;20079;-78
2023/01/27 04:52:49;;;;;;;1.60;1.00;;;4.60;90.40;;;;;;5095061;28;20119;-78
2023/01/27 04:55:15;;;;;;;0.98;0.75;;;4.70;90.40;;;;;;5094607;28;20056;-78
2023/01/27 04:57:41;;;;;;;1.30;1.00;;;4.60;90.40;;;;;;5094437;28;20393;-79
2023/01/27 05:00:07;;;;;;;0.93;0.73;;;4.70;90.40;;;;;;5076351;28;20040;-79
2023/01/27 05:02:33;;;;;;;1.63;0.80;;;4.70;90.40;;;;;;5076547;28;20082;-78
2023/01/27 05:05:03;;;;;;;1.00;0.63;;;4.70;90.40;;;;;;5094778;28;20048;-78
2023/01/27 05:07:29;;;;;;;0.82;0.70;;;4.70;90.40;;;;;;5076390;28;20047;-78
2023/01/27 05:09:55;;;;;;;0.63;0.57;;;4.70;90.40;;;;;;5076569;28;20130;-78
2023/01/27 05:12:20;;;;;;;1.65;0.90;;;4.70;90.40;;;;;;5095409;28;20044;-78
2023/01/27 05:14:46;;;;;;;2.90;1.35;;;4.70;90.40;;;;;;5057905;28;20040;-79
2023/01/27 05:17:12;;;;;;;0.95;0.60;;;4.60;90.40;;;;;;5076336;28;20082;-78
2023/01/27 05:19:37;;;;;;;1.25;0.85;;;4.70;90.40;;;;;;5076949;28;20146;-78
2023/01/27 05:22:03;;;;;;;0.80;0.70;;;4.60;90.40;;;;;;5060130;28;20076;-78
2023/01/27 05:24:28;;;;;;;1.40;1.00;;;4.70;90.40;;;;;;5059856;28;20040;-83
2023/01/27 05:26:54;;;;;;;0.95;0.70;;;4.70;90.40;;;;;;5060339;28;20052;-79
2023/01/27 05:29:20;;;;;;;1.80;0.90;;;4.80;90.40;;;;;;5060146;28;20071;-79
2023/01/27 05:31:45;;;;;;;1.15;0.80;;;4.70;90.30;;;;;;5076712;28;20043;-79
2023/01/27 05:34:11;;;;;;;1.38;0.82;;;4.70;90.30;;;;;;5095946;28;20055;-79
2023/01/27 05:36:36;;;;;;;1.20;0.73;;;4.70;90.30;;;;;;5096235;28;20501;-79
2023/01/27 05:39:02;;;;;;;1.88;1.00;;;4.70;90.20;;;;;;5098921;28;20043;-79
2023/01/27 05:41:30;;;;;;;1.38;0.85;;;4.80;90.20;;;;;;5060257;28;20048;-79
2023/01/27 05:43:56;;;;;;;1.20;0.85;;;4.80;90.20;;;;;;5076615;28;20036;-79
2023/01/27 05:46:24;;;;;;;1.15;0.80;;;4.80;90.20;;;;;;5059297;28;20482;-79
2023/01/27 05:48:53;;;;;;;0.82;0.60;;;4.70;90.20;;;;;;5057527;28;20119;-78
2023/01/27 05:51:20;;;;;;;1.75;0.80;;;4.80;90.20;;;;;;5042628;28;20082;-78
2023/01/27 05:53:46;;;;;;;0.65;0.60;;;4.80;90.20;;;;;;5094244;28;20036;-79
2023/01/27 05:56:15;;;;;;;0.77;0.52;;;4.80;90.20;;;;;;5075631;28;20043;-79
2023/01/27 05:58:42;;;;;;;0.80;0.70;;;4.80;90.20;;;;;;5043272;28;20036;-78
2023/01/27 06:01:11;;;;;;;0.55;0.35;;;4.80;90.20;;;;;;5075562;28;20066;-78
2023/01/27 06:03:38;;;;;;;0.70;0.52;;;4.80;90.20;;;;;;5094458;28;20055;-79
2023/01/27 06:06:04;;;;;;;0.93;0.60;;;4.70;90.20;;;;;;5093500;28;20048;-79
2023/01/27 06:08:30;;;;;;;1.02;0.80;;;4.80;90.20;;;;;;5075491;28;20047;-78
2023/01/27 06:10:57;;;;;;;1.15;0.80;;;4.80;90.20;;;;;;5093382;28;20478;-79
2023/01/27 06:13:23;;;;;;;1.27;0.65;;;4.70;90.20;;;;;;5074109;28;20044;-79
2023/01/27 06:15:49;;;;;;;0.80;0.60;;;4.80;90.20;;;;;;5058544;28;20050;-79
2023/01/27 06:18:16;;;;;;;0.57;0.47;;;4.70;90.20;;;;;;5077168;28;20389;-78
2023/01/27 06:20:42;;;;;;;0.75;0.60;;;4.70;90.20;;;;;;5089278;28;20083;-79
2023/01/27 06:23:10;;;;;;;0.75;0.70;;;4.80;90.20;;;;;;5071269;28;20040;-79
2023/01/27 06:25:40;;;;;;;0.77;0.50;;;4.70;90.20;;;;;;5093980;28;20040;-79
2023/01/27 06:28:06;;;;;;;0.93;0.60;;;4.70;90.20;;;;;;5112775;28;20047;-79
2023/01/27 06:30:35;;;;;;;0.52;0.52;;;4.70;90.20;;;;;;5092522;28;20059;-79
2023/01/27 06:33:01;;;;;;;1.15;0.70;;;4.80;90.20;;;;;;5091942;28;20059;-79
2023/01/27 06:35:27;;;;;;;0.80;0.60;;;4.80;90.20;;;;;;5084688;28;20040;-79
2023/01/27 06:37:53;;;;;;;1.05;0.73;;;4.70;90.20;;;;;;5071547;28;20572;-79
2023/01/27 06:40:19;;;;;;;1.15;0.70;;;4.60;90.20;;;;;;5109978;28;20469;-79
2023/01/27 06:42:44;;;;;;;1.25;0.80;;;4.70;90.20;;;;;;5088028;28;20043;-79
2023/01/27 06:45:11;;;;;;;0.63;0.63;;;4.60;90.20;;;;;;5037052;28;20051;-79
2023/01/27 06:47:39;;;;;;;0.88;0.77;;;4.60;90.30;;;;;;5087652;28;20088;-79
2023/01/27 06:50:06;;;;;;;0.88;0.70;;;4.60;90.30;;;;;;5042135;28;20071;-79
2023/01/27 06:52:32;;;;;;;1.08;0.80;;;4.50;90.30;;;;;;5088768;28;20066;-78
2023/01/27 06:54:57;;;;;;;1.42;0.60;;;4.40;90.30;;;;;;5108046;28;20127;-79
2023/01/27 06:57:23;;;;;;;0.50;0.50;;;4.50;90.30;;;;;;5102286;28;20031;-79
2023/01/27 06:59:49;;;;;;;0.90;0.50;;;4.50;90.30;;;;;;5105756;28;20509;-79
2023/01/27 07:02:14;;;;;;;1.00;0.70;;;4.50;90.30;;;;;;5105671;28;20040;-78
2023/01/27 07:04:40;;;;;;;1.33;0.80;;;4.50;90.30;;;;;;5068594;28;20048;-79
2023/01/27 07:07:06;;;;;;;1.23;0.80;;;4.40;90.20;;;;;;5079588;28;20066;-79
2023/01/27 07:09:31;;;;;;;0.90;0.70;;;4.50;90.20;;;;;;5081623;28;20036;-79
2023/01/27 07:11:57;;;;;;;0.70;0.50;;;4.40;90.20;;;;;;5061351;28;20047;-79
2023/01/27 07:14:22;;;;;;;2.08;0.80;;;4.40;90.20;;;;;;5079678;28;20102;-79
2023/01/27 07:16:48;;;;;;;0.65;0.60;;;4.30;90.30;;;;;;5060856;28;20402;-78
2023/01/27 07:19:15;;;;;;;1.70;0.85;;;4.20;90.30;;;;;;5084149;28;20122;-78
2023/01/27 07:21:41;;;;;;;0.80;0.80;;;4.20;90.40;;;;;;5066895;28;20051;-78
2023/01/27 07:24:07;;;;;;;1.05;0.80;;;4.10;90.40;;;;;;5053325;28;20402;-78
2023/01/27 07:26:33;;;;;;;0.80;0.55;;;4.10;90.50;;;;;;5066414;28;20561;-78
2023/01/27 07:28:59;;;;;;;0.60;0.60;;;4.00;90.50;;;;;;5069781;28;20067;-78
2023/01/27 07:31:24;;;;;;;0.60;0.60;;;4.00;90.50;;;;;;5067643;28;20068;-78
2023/01/27 07:33:52;;;;;;;0.98;0.63;;;4.00;90.50;;;;;;5103830;28;20057;-78
2023/01/27 07:36:18;;;;;;;0.73;0.68;;;3.90;90.60;;;;;;5064954;28;20040;-78
2023/01/27 07:38:43;;;;;;;0.40;0.40;;;3.90;90.60;;;;;;5058414;28;20119;-77
2023/01/27 07:41:10;;;;;;;0.80;0.52;;;4.00;90.60;;;;;;5093945;28;20143;-78
2023/01/27 07:43:35;;;;;;;0.80;0.52;;;4.00;90.50;;;;;;5057654;28;20070;-77
2023/01/27 07:46:07;;;;;;;0.82;0.70;;;4.00;90.50;;;;;;5090756;28;20079;-76
2023/01/27 07:48:33;;;;;;;1.45;0.57;;;4.00;90.50;;;;;;5021579;28;20037;-78
2023/01/27 07:50:59;;;;;;;1.00;0.70;;;4.00;90.50;;;;;;5038202;28;20136;-79
2023/01/27 07:53:24;;;;;;;0.85;0.60;;;4.10;90.50;;;;;;5053005;28;20164;-75
2023/01/27 07:55:50;;;;;;;0.77;0.60;;;4.00;90.50;;;;;;5020873;28;20049;-78
2023/01/27 07:58:16;;;;;;;0.50;0.50;;;4.10;90.40;;;;;;5020496;28;20041;-78
2023/01/27 08:00:41;;;;;;;0.40;0.40;;;4.10;90.40;;;;;;5036357;28;20037;-78
2023/01/27 08:03:19;;;;;;;0.47;0.47;;;4.10;90.40;;;;;;5020100;28;20407;-77
2023/01/27 08:05:47;;;;;;;1.00;0.60;;;4.20;90.40;;;;;;5036904;28;20044;-77
2023/01/27 08:08:13;;;;;;;0.93;0.70;;;4.20;90.30;;;;;;5021385;28;20033;-78
2023/01/27 08:10:48;;;;;;;0.43;0.43;;;4.20;90.30;;;;;;5053850;28;20041;-77
2023/01/27 08:13:14;;;;;;;0.63;0.50;;;4.20;90.30;;;;;;5022846;28;20119;-76
2023/01/27 08:15:40;;;;;;;0.80;0.55;;;4.30;90.30;;;;;;5036527;28;20124;-76
2023/01/27 08:18:06;;;;;;;0.52;0.38;;;4.20;90.20;;;;;;5057143;28;20072;-78
2023/01/27 08:20:34;;;;;;;0.75;0.40;;;4.40;90.20;;;;;;5045536;28;20044;-77
2023/01/27 08:23:02;;;;;;;0.40;0.40;;;4.30;90.20;;;;;;5036188;28;20095;-78
2023/01/27 08:25:28;;;;;;;0.73;0.70;;;4.30;90.20;;;;;;5015480;28;20044;-78
2023/01/27 08:27:55;;;;;;;0.68;0.50;;;4.30;90.10;;;;;;4997915;28;20041;-77
2023/01/27 08:30:23;;;;;;;1.05;0.60;;;4.40;90.10;;;;;;5033276;28;20229;-78
2023/01/27 08:32:49;;;;;;;0.60;0.57;;;4.40;90.10;;;;;;5033322;28;20068;-79
2023/01/27 08:35:15;;;;;;;1.83;0.60;;;4.40;90.10;;;;;;5019348;28;20543;-78
2023/01/27 08:37:44;;;;;;;0.40;0.40;;;4.40;90.00;;;;;;5015436;28;20542;-78
2023/01/27 08:40:14;;;;;;;0.68;0.65;;;4.40;90.00;;;;;;5012987;28;20045;-79
2023/01/27 08:42:45;;;;;;;0.88;0.70;;;4.40;90.00;;;;;;4997911;28;20137;-78
2023/01/27 08:45:16;;;;;;;0.47;0.47;;;4.40;90.00;;;;;;4996697;28;20125;-79
2023/01/27 08:47:51;;;;;;;;;;;4.50;90.00;;;;;;5013179;28;20152;-80
2023/01/27 08:50:46;;;;;;;0.57;0.57;;;4.40;90.00;;;;;;4996272;28;19913;-80
2023/01/27 08:53:44;;;;;;;1.33;0.77;;;4.40;90.00;;;;;;5008022;28;20037;-79
2023/01/27 08:56:13;;;;;;;0.88;0.77;;;4.40;89.90;;;;;;4978927;28;20042;-78
2023/01/27 08:58:39;;;;;;;0.93;0.60;;;4.40;89.90;;;;;;4961130;28;20045;-78
2023/01/27 09:01:06;;;;;;;1.23;0.50;;;4.40;90.00;;;;;;4957220;28;20520;-76
2023/01/27 09:03:33;;;;;;;1.10;0.73;;;4.30;89.90;;;;;;4925579;28;20121;-76
2023/01/27 09:05:59;;;;;;;0.30;0.30;;;4.40;90.00;;;;;;4941437;28;20548;-76
2023/01/27 09:08:26;;;;;;;0.65;0.50;;;4.40;90.00;;;;;;4974567;28;20121;-76
2023/01/27 09:10:52;;;;;;;0.45;0.43;;;4.60;90.00;;;;;;4973285;28;20079;-77
2023/01/27 09:13:21;;;;;;;0.60;0.43;;;4.40;90.00;;;;;;4957400;28;20118;-77
2023/01/27 09:15:47;;;;;;;0.50;0.50;;;4.50;90.00;;;;;;4941764;28;20030;-77
2023/01/27 09:18:13;;;;;;;0.63;0.50;;;4.40;89.90;;;;;;4956957;28;20038;-79
2023/01/27 09:20:41;;;;;;;0.50;0.50;;;4.50;89.90;;;;;;4918864;29;20050;-78
2023/01/27 09:23:10;;;;;;;0.50;0.50;;;4.50;89.90;;;;;;4918736;29;20087;-79
2023/01/27 09:25:41;;;;;;;0.93;0.55;;;4.50;90.00;;;;;;4901776;29;20071;-78
2023/01/27 09:28:15;;;;;;;0.50;0.50;;;4.40;89.80;;;;;;4956056;28;20066;-80
2023/01/27 09:30:44;;;;;;;1.13;0.52;;;4.50;90.00;;;;;;4941512;28;20039;-79
2023/01/27 09:33:24;;;;;;;1.98;0.60;;;4.50;89.90;;;;;;4942999;28;20042;-80
2023/01/27 09:36:09;;;;;;;0.60;0.57;;;4.50;89.90;;;;;;4977416;28;20480;-78
2023/01/27 09:38:42;;;;;;;0.80;0.63;;;4.50;89.90;;;;;;4992194;28;20046;-78
2023/01/27 09:41:46;;;;;;;1.30;0.70;;;4.40;89.80;;;;;;4975923;28;20374;-78
2023/01/27 09:44:46;;;;;;;1.02;0.80;;;4.50;89.90;;;;;;4992279;28;20194;-79
2023/01/27 09:47:37;;;;;;;0.90;0.70;;;4.50;89.90;;;;;;4976882;28;20049;-79
2023/01/27 09:50:40;;;;;;;0.85;0.75;;;4.50;89.80;;;;;;4949711;28;20071;-79
2023/01/27 09:53:34;;;;;;;1.45;0.70;;;4.50;89.80;;;;;;4960127;28;20050;-79
2023/01/27 09:56:19;;;;;;;0.63;0.60;;;4.50;89.90;;;;;;4965391;28;20116;-79
2023/01/27 09:59:18;;;;;;;0.98;0.80;;;4.40;89.70;;;;;;4992031;28;20069;-79
2023/01/27 10:01:59;;;;;;;0.55;0.40;;;4.50;89.80;;;;;;5003275;28;20096;-76
2023/01/27 10:04:35;;;;;;;;;;;4.60;89.80;;;;;;5032483;28;20049;-77
2023/01/27 10:07:44;;;;;;;0.82;0.50;;;4.50;89.70;;;;;;4982958;28;20015;-79
2023/01/27 10:10:43;;;;;;;0.70;0.50;;;4.60;89.70;;;;;;5010173;28;20049;-78
2023/01/27 10:13:20;;;;;;;0.57;0.47;;;4.60;89.60;;;;;;4997031;28;20080;-78
2023/01/27 10:16:19;;;;;;;0.95;0.50;;;4.70;89.70;;;;;;4980550;28;20045;-79
2023/01/27 10:19:07;;;;;;;1.08;0.70;;;4.60;89.70;;;;;;5014519;28;20077;-78
2023/01/27 10:21:54;;;;;;;0.65;0.50;;;4.60;89.60;;;;;;5032757;28;20045;-79
2023/01/27 10:24:40;;;;;;;0.60;0.50;;;4.70;89.60;;;;;;5023109;28;20380;-78
2023/01/27 10:27:18;;;;;;;0.50;0.45;;;4.70;89.50;;;;;;5009301;28;20036;-79
2023/01/27 10:33:02;;;;;;;0.93;0.70;;;4.70;89.50;;;;;;5023649;28;20157;-80
2023/01/27 10:35:36;;;;;;;;;;;4.70;89.50;;;;;;5034182;28;20079;-80
2023/01/27 10:42:14;;;;;;;1.00;0.65;;;4.70;89.40;;;;;;4896460;29;20052;-81
2023/01/27 10:45:05;;;;;;;0.68;0.55;;;4.70;89.40;;;;;;4932963;29;20055;-78
2023/01/27 10:47:57;;;;;;;0.50;0.50;;;4.80;89.50;;;;;;4926553;29;20070;-78
2023/01/27 10:50:34;;;;;;;;;;;4.80;89.50;;;;;;4920713;29;20044;-78
2023/01/27 10:53:09;;;;;;;0.85;0.60;;;4.80;89.40;;;;;;4917765;29;19911;-78
2023/01/27 10:55:54;;;;;;;0.50;0.50;;;4.90;89.40;;;;;;4917175;29;20032;-78
2023/01/27 10:58:38;;;;;;;0.90;0.50;;;4.80;89.30;;;;;;4901846;29;20040;-76
2023/01/27 11:01:06;;;;;;;1.00;0.60;;;4.90;89.40;;;;;;4914624;29;20044;-75
2023/01/27 11:03:39;;;;;;;0.80;0.70;;;4.90;89.30;;;;;;4966385;28;20049;-75
2023/01/27 11:06:28;;;;;;;0.70;0.45;;;4.90;89.30;;;;;;4971454;28;20493;-75
2023/01/27 11:09:10;;;;;;;0.90;0.60;;;4.90;89.40;;;;;;4982914;28;20042;-75
2023/01/27 11:11:43;;;;;;;0.50;0.50;;;5.00;89.40;;;;;;5001433;28;20048;-74
2023/01/27 11:14:25;;;;;;;0.55;0.50;;;5.00;89.30;;;;;;5050354;28;20098;-75
2023/01/27 11:16:55;;;;;;;1.00;0.70;;;5.00;89.30;;;;;;5050247;28;20491;-76
2023/01/27 11:19:30;;;;;;;0.80;0.80;;;5.00;89.30;;;;;;5033445;28;20041;-76
2023/01/27 11:22:01;;;;;;;1.17;0.77;;;5.00;89.20;;;;;;5034130;28;20184;-77
2023/01/27 11:24:42;;;;;;;1.65;0.80;;;5.10;89.20;;;;;;5032194;28;20043;-78
2023/01/27 11:27:36;;;;;;;0.75;0.55;;;5.20;89.10;;;;;;5019383;28;20045;-78
2023/01/27 11:30:14;;;;;;;0.98;0.73;;;5.60;89.20;;;;;;5013506;28;20128;-75
2023/01/27 11:33:01;;;;;;;1.05;0.70;;;5.40;88.90;;;;;;5012075;28;20646;-76
2023/01/27 11:35:27;;;;;;;1.20;0.80;;;5.50;88.70;;;;;;4982089;28;20038;-75
2023/01/27 11:37:53;;;;;;;0.52;0.50;;;5.50;88.50;;;;;;5030372;28;20095;-75
2023/01/27 11:40:26;;;;;;;0.63;0.43;;;5.60;88.40;;;;;;5030453;28;20485;-76
2023/01/27 11:42:54;;;;;;;0.75;0.65;;;5.60;88.40;;;;;;5011664;28;20057;-76
2023/01/27 11:45:20;;;;;;;0.88;0.60;;;5.60;88.40;;;;;;5029938;28;20049;-75
2023/01/27 11:47:53;;;;;;;0.80;0.57;;;5.60;88.40;;;;;;5013427;28;20057;-77
2023/01/27 11:50:22;;;;;;;0.82;0.60;;;5.60;89.10;;;;;;5029907;28;20500;-76
2023/01/27 11:52:53;;;;;;;0.73;0.60;;;5.60;88.40;;;;;;5030444;28;20042;-76
2023/01/27 11:55:23;;;;;;;0.50;0.45;;;5.60;88.40;;;;;;5029926;28;20250;-76
2023/01/27 11:57:56;;;;;;;0.70;0.70;;;5.70;88.50;;;;;;5019718;28;20064;-76
2023/01/27 12:00:27;;;;;;;1.30;0.90;;;5.70;88.40;;;;;;5074118;28;20078;-76
2023/01/27 12:03:10;;;;;;;0.85;0.60;;;5.70;88.90;;;;;;5092260;28;20048;-76
2023/01/27 12:05:44;;;;;;;0.70;0.65;;;5.70;88.20;;;;;;5092504;28;20040;-76
2023/01/27 12:08:10;;;;;;;1.48;1.00;;;5.70;88.30;;;;;;5097120;28;20044;-78
2023/01/27 12:10:57;;;;;;;1.45;0.75;;;5.70;88.30;;;;;;5094988;28;20040;-78
2023/01/27 12:13:48;;;;;;;0.73;0.60;;;5.90;88.30;;;;;;5058478;28;20032;-78
2023/01/27 12:27:45;;;;;;;0.70;0.50;;;6.00;87.90;;;;;;4859261;29;20068;-77
2023/01/27 12:30:32;;;;;;;0.75;0.68;;;6.00;87.80;;;;;;4851040;29;20153;-77
2023/01/27 12:33:09;;;;;;;0.50;0.50;;;6.00;87.80;;;;;;4824288;29;20070;-78
2023/01/27 12:35:36;;;;;;;0.50;0.50;;;6.20;87.80;;;;;;4799599;29;20434;-78
2023/01/27 12:38:34;;;;;;;0.60;0.60;;;6.00;87.80;;;;;;4814296;29;20051;-79
2023/01/27 12:41:28;;;;;;;1.02;0.65;;;6.00;87.90;;;;;;4796883;29;20046;-79
2023/01/27 12:44:27;;;;;;;0.60;0.60;;;6.00;87.90;;;;;;4756087;30;20490;-79
2023/01/27 12:54:58;;;;;;;0.55;0.55;;;6.30;87.50;;;;;;4673547;30;20110;-79
2023/01/27 12:57:48;;;;;;;1.08;0.80;;;6.30;87.30;;;;;;4674214;30;20046;-79
2023/01/27 13:00:36;;;;;;;0.60;0.60;;;6.20;87.50;;;;;;4741930;30;20068;-79
2023/01/27 13:03:29;;;;;;;0.50;0.50;;;6.20;87.60;;;;;;4773806;29;20058;-79
2023/01/27 13:06:46;;;;;;;1.67;0.60;;;6.20;87.60;;;;;;4774146;29;20047;-78
2023/01/27 13:13:07;;;;;;;;;;;6.10;87.90;;;;;;4810442;29;20083;-80
2023/01/27 13:20:20;;;;;;;0.70;0.65;;;6.10;88.00;;;;;;4802381;29;20054;-80
2023/01/27 13:23:03;;;;;;;0.73;0.60;;;5.90;88.00;;;;;;4755227;30;20063;-80
2023/01/27 13:25:46;;;;;;;0.52;0.52;;;5.90;88.00;;;;;;4735275;30;20098;-78
2023/01/27 13:28:40;;;;;;;0.85;0.68;;;5.90;88.00;;;;;;4780150;29;20051;-79
2023/01/27 13:31:11;;;;;;;0.82;0.75;;;5.90;88.00;;;;;;4813294;29;20043;-76
2023/01/27 13:33:46;;;;;;;0.55;0.55;;;5.90;88.00;;;;;;4806331;29;20191;-75
2023/01/27 13:36:56;;;;;;;1.05;0.77;;;5.90;88.00;;;;;;4807476;29;20050;-78
2023/01/27 13:39:42;;;;;;;0.80;0.60;;;5.90;88.00;;;;;;4833894;29;20067;-76
2023/01/27 13:42:29;;;;;;;0.88;0.60;;;6.10;88.20;;;;;;4880912;29;20051;-77
2023/01/27 13:45:43;;;;;;;1.13;0.80;;;5.80;88.00;;;;;;4881471;29;20048;-80
2023/01/27 13:48:24;;;;;;;0.82;0.60;;;5.70;88.00;;;;;;4863627;29;20503;-77
2023/01/27 13:51:08;;;;;;;1.45;0.50;;;5.80;88.10;;;;;;4862343;29;20056;-78
2023/01/27 13:54:02;;;;;;;1.02;0.73;;;5.80;88.20;;;;;;4876138;29;20071;-78
2023/01/27 13:57:11;;;;;;;0.70;0.63;;;5.70;88.20;;;;;;4923746;28;20043;-78
2023/01/27 14:00:35;;;;;;;0.93;0.70;;;5.70;88.30;;;;;;4920719;29;20048;-79
2023/01/27 14:03:44;;;;;;;1.20;0.80;;;5.60;88.30;;;;;;4970534;28;20046;-79
2023/01/27 14:06:42;;;;;;;1.27;0.70;;;5.60;88.30;;;;;;4992441;28;20519;-79
2023/01/27 14:09:18;;;;;;;0.90;0.70;;;5.60;88.30;;;;;;4952387;28;20042;-77
2023/01/27 14:11:55;;;;;;;0.60;0.50;;;5.60;88.40;;;;;;4916061;29;20510;-76
2023/01/27 14:15:02;;;;;;;0.90;0.80;;;5.70;88.40;;;;;;4918562;29;20058;-77
2023/01/27 14:17:57;;;;;;;1.10;0.80;;;5.50;88.30;;;;;;4921007;29;20051;-79
2023/01/27 14:21:06;;;;;;;0.90;0.77;;;5.50;88.40;;;;;;4936875;29;20052;-78
2023/01/27 14:24:33;;;;;;;0.73;0.50;;;5.50;88.40;;;;;;4864951;29;20053;-78
2023/01/27 14:27:33;;;;;;;0.70;0.60;;;5.40;88.40;;;;;;4880588;29;20044;-78
2023/01/27 14:30:33;;;;;;;1.38;0.73;;;5.40;88.40;;;;;;4867034;29;20177;-79
2023/01/27 14:56:57;;;;;;;0.90;0.73;;;5.30;88.40;;;;;;4720482;30;20108;-80
2023/01/27 15:11:11;;;;;;;1.50;0.73;;;5.20;88.40;;;;;;4715648;30;20061;-78